| time (UTC) | temp C | wind direction | speed KPH | gust KPH | rain 1hr cm | rain 24hr cm | rain mn cm | humidity % | barometer mb |
| 20260503211557 | 23 | 285 | 1.6 | 9.7 | 0.00 | 0.00 | 0.00 | 61 | 1011.4 |
| 20260503210056 | 23 | 217 | 3.2 | 11.3 | 0.00 | 0.00 | 0.00 | 62 | 1011.6 |
| 20260503204556 | 22 | 0 | 3.2 | 12.9 | 0.00 | 0.00 | 0.00 | 60 | 1011.8 |
| 20260503203114 | 23 | 194 | 1.6 | 17.7 | 0.00 | 0.00 | 0.00 | 59 | 1011.8 |
| 20260503201611 | 23 | 293 | 3.2 | 9.7 | 0.00 | 0.00 | 0.00 | 60 | 1011.9 |
| 20260503200054 | 23 | 274 | 1.6 | 8.0 | 0.00 | 0.00 | 0.00 | 60 | 1012.1 |
| 20260503194553 | 23 | 0 | 1.6 | 9.7 | 0.00 | 0.00 | 0.00 | 60 | 1012.4 |
| 20260503193056 | 22 | 265 | 1.6 | 11.3 | 0.00 | 0.00 | 0.00 | 64 | 1012.5 |
| 20260503191556 | 22 | 291 | 3.2 | 8.0 | 0.00 | 0.00 | 0.00 | 63 | 1012.7 |
| 20260503190111 | 22 | 269 | 1.6 | 11.3 | 0.00 | 0.00 | 0.00 | 62 | 1012.7 |
| 20260503184604 | 22 | 261 | 1.6 | 3.2 | 0.00 | 0.00 | 0.00 | 64 | 1012.9 |
| 20260503183101 | 21 | 204 | 1.6 | 9.7 | 0.00 | 0.00 | 0.00 | 66 | 1013.1 |
| 20260503181600 | 20 | 0 | 0.0 | 4.8 | 0.00 | 0.00 | 0.00 | 68 | 1013.2 |
| 20260503180059 | 20 | 281 | 1.6 | 6.4 | 0.00 | 0.00 | 0.00 | 69 | 1013.4 |
| 20260503174555 | 20 | 0 | 0.0 | 3.2 | 0.00 | 0.00 | 0.00 | 71 | 1013.5 |
| 20260503173100 | 20 | 213 | 0.0 | 4.8 | 0.00 | 0.00 | 0.00 | 71 | 1013.6 |
| 20260503171553 | 18 | 219 | 0.0 | 3.2 | 0.00 | 0.00 | 0.00 | 71 | 1013.7 |
| 20260503100108 | 13 | 0 | 0.0 | 1.6 | 0.00 | 0.00 | 0.00 | 83 | 1014.0 |
| 20260503081557 | 13 | 0 | 0.0 | 0.0 | 0.00 | 0.00 | 0.00 | 74 | 1014.0 |
| 20260503071600 | 14 | 0 | 0.0 | 1.6 | 0.00 | 0.00 | 0.00 | 72 | 1013.9 |
| 20260503060116 | 16 | 0 | 0.0 | 1.6 | 0.00 | 0.00 | 0.00 | 66 | 1013.8 |
| 20260503054605 | 16 | 0 | 0.0 | 0.0 | 0.00 | 0.00 | 0.00 | 66 | 1013.8 |
| 20260503053055 | 16 | 0 | 0.0 | 1.6 | 0.00 | 0.00 | 0.00 | 65 | 1013.8 |
| 20260503051553 | 16 | 0 | 0.0 | 1.6 | 0.00 | 0.00 | 0.00 | 64 | 1013.8 |
| 20260503050058 | 17 | 44 | 0.0 | 3.2 | 0.00 | 0.00 | 0.00 | 64 | 1013.6 |
| 20260503044552 | 17 | 0 | 0.0 | 1.6 | 0.00 | 0.00 | 0.00 | 65 | 1013.6 |
| 20260503043055 | 17 | 0 | 0.0 | 0.0 | 0.00 | 0.00 | 0.00 | 65 | 1013.4 |
| 20260503041559 | 17 | 0 | 0.0 | 0.0 | 0.00 | 0.00 | 0.00 | 65 | 1013.2 |
| 20260503040055 | 18 | 0 | 0.0 | 1.6 | 0.00 | 0.00 | 0.00 | 61 | 1013.1 |
| 20260503034554 | 18 | 0 | 0.0 | 3.2 | 0.00 | 0.00 | 0.00 | 58 | 1012.9 |
| 20260503033105 | 19 | 284 | 0.0 | 4.8 | 0.00 | 0.00 | 0.00 | 55 | 1012.7 |
| 20260503031552 | 20 | 0 | 0.0 | 6.4 | 0.00 | 0.00 | 0.00 | 53 | 1012.5 |
| 20260503030056 | 21 | 292 | 0.0 | 4.8 | 0.00 | 0.00 | 0.00 | 51 | 1012.4 |
| 20260503024552 | 21 | 290 | 0.0 | 14.5 | 0.00 | 0.00 | 0.00 | 50 | 1012.4 |
| 20260503023107 | 21 | 0 | 4.8 | 12.9 | 0.00 | 0.00 | 0.00 | 48 | 1012.3 |
| 20260503021556 | 22 | 265 | 6.4 | 16.1 | 0.00 | 0.00 | 0.00 | 46 | 1012.1 |
| 20260503020056 | 22 | 306 | 3.2 | 19.3 | 0.00 | 0.00 | 0.00 | 47 | 1012.2 |
| 20260503014600 | 22 | 271 | 6.4 | 20.9 | 0.00 | 0.00 | 0.00 | 46 | 1012.4 |
| 20260503013053 | 22 | 298 | 3.2 | 17.7 | 0.00 | 0.00 | 0.00 | 48 | 1012.5 |
| 20260503011555 | 22 | 297 | 6.4 | 20.9 | 0.00 | 0.00 | 0.00 | 51 | 1012.6 |
| 20260503010054 | 22 | 288 | 3.2 | 16.1 | 0.00 | 0.00 | 0.00 | 55 | 1012.6 |
| 20260503004552 | 23 | 346 | 4.8 | 17.7 | 0.00 | 0.00 | 0.00 | 54 | 1012.6 |
| 20260503003053 | 23 | 321 | 3.2 | 14.5 | 0.00 | 0.00 | 0.00 | 55 | 1012.7 |
| 20260503001608 | 23 | 0 | 1.6 | 14.5 | 0.00 | 0.00 | 0.00 | 56 | 1012.7 |
| 20260503000121 | 23 | 302 | 3.2 | 14.5 | 0.00 | 0.00 | 0.00 | 56 | 1012.8 |
| 20260502234606 | 23 | 306 | 4.8 | 17.7 | 0.00 | 0.00 | 0.00 | 59 | 1013.0 |
| 20260502233053 | 23 | 292 | 1.6 | 12.9 | 0.00 | 0.00 | 0.00 | 59 | 1013.0 |
| 20260502231601 | 23 | 286 | 4.8 | 17.7 | 0.00 | 0.00 | 0.00 | 60 | 1013.3 |
| 20260502230052 | 23 | 300 | 3.2 | 14.5 | 0.00 | 0.00 | 0.00 | 62 | 1013.5 |
| 20260502224551 | 23 | 336 | 3.2 | 14.5 | 0.00 | 0.00 | 0.00 | 61 | 1013.6 |
| 20260502223055 | 23 | 37 | 4.8 | 12.9 | 0.00 | 0.00 | 0.00 | 62 | 1013.9 |
| 20260502221553 | 23 | 346 | 3.2 | 11.3 | 0.00 | 0.00 | 0.00 | 62 | 1014.0 |
| 20260502220057 | 22 | 301 | 4.8 | 12.9 | 0.00 | 0.00 | 0.00 | 62 | 1014.2 |
| 20260502214554 | 22 | 285 | 1.6 | 12.9 | 0.00 | 0.00 | 0.00 | 62 | 1014.2 |
| 20260502213109 | 22 | 331 | 3.2 | 12.9 | 0.00 | 0.00 | 0.00 | 61 | 1014.3 |